TAF and METAR

METAR for Menara International Airport

GMMX 311230Z VRB04KT 8000 SCT024 24/15 Q1013 NOSIG
Report created 31. mai 14:30
wind 4 knots from various directions visibility 8000 meters scattered clouds (~50% cover) at 2400 feet Temperature 24° with dewpoint at 15° (Humidity 57.20%) Pressure 1013 hPa no significant weather change expected the next couple of hours

TAF for Menara International Airport

TAF GMMX 311100Z 3112/0118 36007KT 8000 BKN010 TEMPO 3115/3121 28016KT SCT026
Report created 31. mai 13:00

between 31. mai 14:00 - 1. mai 20:00

wind 7 knots from N (360°) visibility 8000 meters broken clouds (~75% cover) at 1000 feet

temporarily between 31. mai 17:00 - 31. mai 23:00

wind 16 knots from W (280°) scattered clouds (~50% cover) at 2600 feet